sensor_id;sensor_type;location;lat;lon;timestamp;pressure;altitude;pressure_sealevel;temperature;humidity
41140;BME280;26881;48.784;9.192;2022-08-24T00:03:09;98730.88;;;21.19;51.39
41140;BME280;26881;48.784;9.192;2022-08-24T00:08:33;98721.53;;;21.15;51.62
41140;BME280;26881;48.784;9.192;2022-08-24T00:13:55;98729.31;;;20.91;52.38
41140;BME280;26881;48.784;9.192;2022-08-24T00:19:17;98722.91;;;21.01;52.12
41140;BME280;26881;48.784;9.192;2022-08-24T00:24:39;98722.78;;;21.03;52.33
41140;BME280;26881;48.784;9.192;2022-08-24T00:30:04;98722.88;;;20.93;52.56
41140;BME280;26881;48.784;9.192;2022-08-24T00:35:26;98721.13;;;20.66;53.23
41140;BME280;26881;48.784;9.192;2022-08-24T00:40:48;98721.56;;;20.61;53.45
41140;BME280;26881;48.784;9.192;2022-08-24T00:52:20;98723.88;;;20.47;54.40
41140;BME280;26881;48.784;9.192;2022-08-24T00:57:48;98725.22;;;20.51;54.36
41140;BME280;26881;48.784;9.192;2022-08-24T01:03:11;98726.28;;;20.40;54.59
41140;BME280;26881;48.784;9.192;2022-08-24T01:08:34;98722.25;;;20.36;54.89
41140;BME280;26881;48.784;9.192;2022-08-24T01:13:56;98720.25;;;20.20;55.56
41140;BME280;26881;48.784;9.192;2022-08-24T01:19:25;98722.16;;;20.28;55.49
41140;BME280;26881;48.784;9.192;2022-08-24T01:24:49;98737.50;;;20.34;55.47
41140;BME280;26881;48.784;9.192;2022-08-24T01:30:21;98735.03;;;19.95;56.88
41140;BME280;26881;48.784;9.192;2022-08-24T01:36:04;98738.88;;;19.83;57.34
41140;BME280;26881;48.784;9.192;2022-08-24T01:41:26;98746.78;;;19.92;57.14
41140;BME280;26881;48.784;9.192;2022-08-24T01:46:52;98741.13;;;19.68;58.23
41140;BME280;26881;48.784;9.192;2022-08-24T01:52:18;98742.38;;;19.64;58.57
41140;BME280;26881;48.784;9.192;2022-08-24T01:57:40;98753.72;;;19.46;59.08
41140;BME280;26881;48.784;9.192;2022-08-24T02:03:02;98744.50;;;19.70;58.87
41140;BME280;26881;48.784;9.192;2022-08-24T02:08:25;98748.97;;;19.50;59.92
41140;BME280;26881;48.784;9.192;2022-08-24T02:13:46;98756.22;;;19.77;59.04
41140;BME280;26881;48.784;9.192;2022-08-24T02:19:08;98756.63;;;19.63;59.30
41140;BME280;26881;48.784;9.192;2022-08-24T02:24:31;98758.19;;;19.55;59.65
41140;BME280;26881;48.784;9.192;2022-08-24T02:29:53;98755.16;;;19.41;60.36
41140;BME280;26881;48.784;9.192;2022-08-24T02:35:15;98763.16;;;19.11;61.13
41140;BME280;26881;48.784;9.192;2022-08-24T02:40:37;98762.84;;;19.24;60.86
41140;BME280;26881;48.784;9.192;2022-08-24T02:45:59;98756.56;;;18.96;61.70
41140;BME280;26881;48.784;9.192;2022-08-24T02:51:29;98752.81;;;18.99;61.11
41140;BME280;26881;48.784;9.192;2022-08-24T02:57:02;98760.03;;;19.16;60.19
41140;BME280;26881;48.784;9.192;2022-08-24T03:02:24;98751.56;;;19.12;59.67
41140;BME280;26881;48.784;9.192;2022-08-24T03:07:46;98752.09;;;19.16;59.59
41140;BME280;26881;48.784;9.192;2022-08-24T03:13:07;98750.84;;;19.10;60.15
41140;BME280;26881;48.784;9.192;2022-08-24T03:18:30;98745.41;;;19.12;60.08
41140;BME280;26881;48.784;9.192;2022-08-24T03:23:52;98750.31;;;19.16;59.98
41140;BME280;26881;48.784;9.192;2022-08-24T03:29:14;98747.09;;;19.03;60.03
41140;BME280;26881;48.784;9.192;2022-08-24T03:34:36;98742.91;;;18.81;61.04
41140;BME280;26881;48.784;9.192;2022-08-24T03:39:58;98746.06;;;18.65;61.56
41140;BME280;26881;48.784;9.192;2022-08-24T03:45:21;98745.66;;;18.60;62.20
41140;BME280;26881;48.784;9.192;2022-08-24T03:50:43;98753.16;;;18.55;62.50
41140;BME280;26881;48.784;9.192;2022-08-24T03:56:07;98747.03;;;18.74;61.44
41140;BME280;26881;48.784;9.192;2022-08-24T04:01:29;98749.31;;;18.79;60.98
41140;BME280;26881;48.784;9.192;2022-08-24T04:06:51;98754.25;;;18.52;61.34
41140;BME280;26881;48.784;9.192;2022-08-24T04:12:13;98750.91;;;18.41;61.40
41140;BME280;26881;48.784;9.192;2022-08-24T04:17:35;98758.22;;;18.27;62.64
41140;BME280;26881;48.784;9.192;2022-08-24T04:22:57;98755.06;;;18.33;63.88
41140;BME280;26881;48.784;9.192;2022-08-24T04:28:19;98761.88;;;18.26;62.65
41140;BME280;26881;48.784;9.192;2022-08-24T04:33:41;98764.00;;;18.32;62.28
41140;BME280;26881;48.784;9.192;2022-08-24T04:39:03;98760.34;;;18.33;61.91
41140;BME280;26881;48.784;9.192;2022-08-24T04:44:26;98767.69;;;18.70;60.65
41140;BME280;26881;48.784;9.192;2022-08-24T04:49:52;98768.69;;;18.29;62.04
41140;BME280;26881;48.784;9.192;2022-08-24T04:55:14;98778.34;;;18.40;61.80
41140;BME280;26881;48.784;9.192;2022-08-24T05:00:36;98781.22;;;18.67;60.85
41140;BME280;26881;48.784;9.192;2022-08-24T05:05:57;98784.22;;;18.53;61.40
41140;BME280;26881;48.784;9.192;2022-08-24T05:11:20;98786.00;;;18.33;62.84
41140;BME280;26881;48.784;9.192;2022-08-24T05:16:42;98787.97;;;18.41;62.73
41140;BME280;26881;48.784;9.192;2022-08-24T05:22:13;98785.78;;;18.56;64.25
41140;BME280;26881;48.784;9.192;2022-08-24T05:27:35;98781.63;;;18.72;62.37
41140;BME280;26881;48.784;9.192;2022-08-24T05:32:57;98785.25;;;18.71;62.20
41140;BME280;26881;48.784;9.192;2022-08-24T05:38:18;98791.16;;;18.85;62.16
41140;BME280;26881;48.784;9.192;2022-08-24T05:43:40;98796.34;;;18.86;61.35
41140;BME280;26881;48.784;9.192;2022-08-24T05:49:03;98792.28;;;18.92;61.07
41140;BME280;26881;48.784;9.192;2022-08-24T05:54:25;98797.03;;;18.88;61.21
41140;BME280;26881;48.784;9.192;2022-08-24T05:59:48;98802.34;;;18.98;61.83
41140;BME280;26881;48.784;9.192;2022-08-24T06:05:10;98815.72;;;19.06;61.76
41140;BME280;26881;48.784;9.192;2022-08-24T06:10:38;98808.34;;;19.10;61.77
41140;BME280;26881;48.784;9.192;2022-08-24T06:16:03;98805.97;;;19.16;61.92
41140;BME280;26881;48.784;9.192;2022-08-24T06:21:43;98810.72;;;19.32;60.90
41140;BME280;26881;48.784;9.192;2022-08-24T06:27:07;98807.06;;;19.43;60.62
41140;BME280;26881;48.784;9.192;2022-08-24T06:32:44;98808.88;;;19.43;60.85
41140;BME280;26881;48.784;9.192;2022-08-24T06:38:05;98810.72;;;19.42;60.86
41140;BME280;26881;48.784;9.192;2022-08-24T06:43:28;98799.66;;;19.56;60.28
41140;BME280;26881;48.784;9.192;2022-08-24T06:48:49;98809.56;;;19.74;59.88
41140;BME280;26881;48.784;9.192;2022-08-24T06:54:11;98809.28;;;19.77;59.96
41140;BME280;26881;48.784;9.192;2022-08-24T06:59:33;98815.13;;;19.81;59.53
41140;BME280;26881;48.784;9.192;2022-08-24T07:04:55;98808.84;;;19.91;59.33
41140;BME280;26881;48.784;9.192;2022-08-24T07:10:17;98823.31;;;20.07;58.02
41140;BME280;26881;48.784;9.192;2022-08-24T07:15:43;98819.94;;;20.14;57.99
41140;BME280;26881;48.784;9.192;2022-08-24T07:21:05;98824.78;;;20.29;57.65
41140;BME280;26881;48.784;9.192;2022-08-24T07:26:28;98824.75;;;20.66;57.68
41140;BME280;26881;48.784;9.192;2022-08-24T07:31:51;98820.03;;;21.41;55.22
41140;BME280;26881;48.784;9.192;2022-08-24T07:37:14;98831.50;;;21.24;55.60
41140;BME280;26881;48.784;9.192;2022-08-24T07:42:35;98829.69;;;21.24;55.51
41140;BME280;26881;48.784;9.192;2022-08-24T07:47:57;98826.66;;;21.19;55.42
41140;BME280;26881;48.784;9.192;2022-08-24T07:53:24;98829.81;;;21.23;54.86
41140;BME280;26881;48.784;9.192;2022-08-24T07:59:04;98833.53;;;21.30;54.22
41140;BME280;26881;48.784;9.192;2022-08-24T08:04:31;98830.28;;;21.36;53.41
41140;BME280;26881;48.784;9.192;2022-08-24T08:09:53;98835.41;;;21.48;51.13
41140;BME280;26881;48.784;9.192;2022-08-24T08:15:15;98835.44;;;21.56;50.53
41140;BME280;26881;48.784;9.192;2022-08-24T08:20:39;98828.06;;;21.67;49.83
41140;BME280;26881;48.784;9.192;2022-08-24T08:26:01;98828.81;;;21.78;49.50
41140;BME280;26881;48.784;9.192;2022-08-24T08:31:24;98822.34;;;21.80;49.65
41140;BME280;26881;48.784;9.192;2022-08-24T08:36:48;98818.53;;;21.83;49.70
41140;BME280;26881;48.784;9.192;2022-08-24T08:48:31;98809.94;;;21.97;47.72
41140;BME280;26881;48.784;9.192;2022-08-24T08:54:11;98807.03;;;22.08;47.12
41140;BME280;26881;48.784;9.192;2022-08-24T09:05:36;98801.84;;;22.33;47.02
41140;BME280;26881;48.784;9.192;2022-08-24T09:11:18;98801.53;;;22.36;47.08
41140;BME280;26881;48.784;9.192;2022-08-24T09:22:38;98794.56;;;22.51;45.86
41140;BME280;26881;48.784;9.192;2022-08-24T09:28:26;98797.66;;;22.73;44.59
41140;BME280;26881;48.784;9.192;2022-08-24T09:34:26;98784.50;;;22.88;43.82
41140;BME280;26881;48.784;9.192;2022-08-24T09:40:32;98785.06;;;23.00;42.96
41140;BME280;26881;48.784;9.192;2022-08-24T09:52:08;98782.22;;;23.42;41.64
41140;BME280;26881;48.784;9.192;2022-08-24T10:15:04;98766.34;;;23.90;39.93
41140;BME280;26881;48.784;9.192;2022-08-24T10:38:20;98741.84;;;24.26;39.80
41140;BME280;26881;48.784;9.192;2022-08-24T10:50:25;98729.56;;;24.39;40.62
41140;BME280;26881;48.784;9.192;2022-08-24T11:01:28;98718.28;;;24.60;39.94
41140;BME280;26881;48.784;9.192;2022-08-24T11:07:16;98718.16;;;24.77;38.90
41140;BME280;26881;48.784;9.192;2022-08-24T11:12:40;98725.38;;;24.76;39.80
41140;BME280;26881;48.784;9.192;2022-08-24T11:18:05;98721.88;;;24.99;38.85
41140;BME280;26881;48.784;9.192;2022-08-24T11:23:35;98720.84;;;25.23;38.46
41140;BME280;26881;48.784;9.192;2022-08-24T11:29:03;98704.81;;;25.15;39.07
41140;BME280;26881;48.784;9.192;2022-08-24T11:34:35;98703.47;;;25.19;39.14
41140;BME280;26881;48.784;9.192;2022-08-24T11:40:00;98691.91;;;25.41;37.36
41140;BME280;26881;48.784;9.192;2022-08-24T11:45:27;98695.88;;;25.60;36.89
41140;BME280;26881;48.784;9.192;2022-08-24T11:51:02;98691.09;;;25.85;35.40
41140;BME280;26881;48.784;9.192;2022-08-24T11:57:08;98695.25;;;26.03;35.15
41140;BME280;26881;48.784;9.192;2022-08-24T12:02:37;98682.09;;;26.23;34.73
41140;BME280;26881;48.784;9.192;2022-08-24T12:13:57;98679.88;;;26.63;33.69
41140;BME280;26881;48.784;9.192;2022-08-24T12:19:28;98675.16;;;26.65;34.38
41140;BME280;26881;48.784;9.192;2022-08-24T12:24:55;98671.13;;;26.97;32.54
41140;BME280;26881;48.784;9.192;2022-08-24T12:30:17;98661.78;;;26.93;33.26
41140;BME280;26881;48.784;9.192;2022-08-24T12:35:46;98669.19;;;26.91;33.57
41140;BME280;26881;48.784;9.192;2022-08-24T12:41:29;98667.91;;;26.87;32.96
41140;BME280;26881;48.784;9.192;2022-08-24T12:46:53;98670.84;;;26.92;32.39
41140;BME280;26881;48.784;9.192;2022-08-24T12:58:06;98663.13;;;26.61;33.02
41140;BME280;26881;48.784;9.192;2022-08-24T13:04:03;98667.75;;;26.67;33.38
41140;BME280;26881;48.784;9.192;2022-08-24T13:26:23;98653.28;;;26.89;32.11
41140;BME280;26881;48.784;9.192;2022-08-24T13:31:50;98644.06;;;26.99;31.50
41140;BME280;26881;48.784;9.192;2022-08-24T13:37:23;98643.03;;;27.21;30.86
41140;BME280;26881;48.784;9.192;2022-08-24T13:43:14;98646.22;;;27.10;31.92
41140;BME280;26881;48.784;9.192;2022-08-24T14:11:52;98629.03;;;27.26;33.40
41140;BME280;26881;48.784;9.192;2022-08-24T14:17:30;98622.66;;;27.33;33.14
41140;BME280;26881;48.784;9.192;2022-08-24T14:35:02;98619.56;;;27.30;34.90
41140;BME280;26881;48.784;9.192;2022-08-24T14:40:37;98617.78;;;27.44;34.82
41140;BME280;26881;48.784;9.192;2022-08-24T14:46:12;98609.47;;;27.39;34.38
41140;BME280;26881;48.784;9.192;2022-08-24T14:58:00;98612.94;;;27.32;35.41
41140;BME280;26881;48.784;9.192;2022-08-24T15:04:05;98607.94;;;27.23;36.22
41140;BME280;26881;48.784;9.192;2022-08-24T15:09:33;98611.03;;;27.26;36.65
41140;BME280;26881;48.784;9.192;2022-08-24T15:15:14;98598.13;;;27.15;36.98
41140;BME280;26881;48.784;9.192;2022-08-24T15:27:09;98598.59;;;26.90;37.83
41140;BME280;26881;48.784;9.192;2022-08-24T15:32:49;98600.28;;;26.98;37.93
41140;BME280;26881;48.784;9.192;2022-08-24T15:38:30;98607.75;;;27.03;37.97
41140;BME280;26881;48.784;9.192;2022-08-24T15:49:21;98600.94;;;27.00;38.68
41140;BME280;26881;48.784;9.192;2022-08-24T15:54:56;98602.00;;;27.06;39.22
41140;BME280;26881;48.784;9.192;2022-08-24T16:00:21;98602.56;;;27.01;39.32
41140;BME280;26881;48.784;9.192;2022-08-24T16:06:21;98606.44;;;26.92;39.41
41140;BME280;26881;48.784;9.192;2022-08-24T16:12:03;98608.50;;;26.90;40.18
41140;BME280;26881;48.784;9.192;2022-08-24T16:22:57;98610.44;;;26.75;40.00
41140;BME280;26881;48.784;9.192;2022-08-24T16:33:45;98611.41;;;26.67;40.53
41140;BME280;26881;48.784;9.192;2022-08-24T16:39:09;98614.91;;;26.67;40.62
41140;BME280;26881;48.784;9.192;2022-08-24T16:44:37;98612.81;;;26.63;40.78
41140;BME280;26881;48.784;9.192;2022-08-24T16:49:59;98616.47;;;26.55;40.75
41140;BME280;26881;48.784;9.192;2022-08-24T16:55:21;98610.44;;;26.53;40.44
41140;BME280;26881;48.784;9.192;2022-08-24T17:00:43;98621.97;;;26.54;40.32
41140;BME280;26881;48.784;9.192;2022-08-24T17:06:06;98616.72;;;26.45;41.05
41140;BME280;26881;48.784;9.192;2022-08-24T17:11:32;98631.94;;;26.38;41.58
41140;BME280;26881;48.784;9.192;2022-08-24T17:16:56;98628.16;;;26.33;41.67
41140;BME280;26881;48.784;9.192;2022-08-24T17:22:20;98634.50;;;26.25;41.74
41140;BME280;26881;48.784;9.192;2022-08-24T17:27:43;98632.16;;;26.22;42.14
41140;BME280;26881;48.784;9.192;2022-08-24T17:33:05;98629.78;;;26.12;42.44
41140;BME280;26881;48.784;9.192;2022-08-24T17:38:28;98636.53;;;26.08;42.59
41140;BME280;26881;48.784;9.192;2022-08-24T17:43:51;98646.34;;;26.01;43.22
41140;BME280;26881;48.784;9.192;2022-08-24T17:49:13;98650.16;;;25.92;43.45
41140;BME280;26881;48.784;9.192;2022-08-24T17:54:35;98656.94;;;25.88;43.67
41140;BME280;26881;48.784;9.192;2022-08-24T17:59:57;98660.97;;;25.83;43.52
41140;BME280;26881;48.784;9.192;2022-08-24T18:05:19;98665.03;;;25.79;44.05
41140;BME280;26881;48.784;9.192;2022-08-24T18:10:42;98661.59;;;25.71;44.10
41140;BME280;26881;48.784;9.192;2022-08-24T18:16:16;98665.03;;;25.64;44.65
41140;BME280;26881;48.784;9.192;2022-08-24T18:21:41;98669.28;;;25.59;44.62
41140;BME280;26881;48.784;9.192;2022-08-24T18:27:09;98674.38;;;25.54;44.96
41140;BME280;26881;48.784;9.192;2022-08-24T18:32:31;98671.78;;;25.46;45.53
41140;BME280;26881;48.784;9.192;2022-08-24T18:38:00;98683.88;;;25.41;45.79
41140;BME280;26881;48.784;9.192;2022-08-24T18:43:22;98691.63;;;25.36;45.86
41140;BME280;26881;48.784;9.192;2022-08-24T18:48:44;98694.53;;;25.27;46.33
41140;BME280;26881;48.784;9.192;2022-08-24T18:54:11;98697.13;;;25.20;46.52
41140;BME280;26881;48.784;9.192;2022-08-24T18:59:35;98700.31;;;25.15;47.15
41140;BME280;26881;48.784;9.192;2022-08-24T19:05:08;98698.53;;;25.08;47.20
41140;BME280;26881;48.784;9.192;2022-08-24T19:10:34;98706.28;;;25.02;47.47
41140;BME280;26881;48.784;9.192;2022-08-24T19:15:56;98709.84;;;24.95;47.97
41140;BME280;26881;48.784;9.192;2022-08-24T19:21:18;98709.06;;;24.86;48.31
41140;BME280;26881;48.784;9.192;2022-08-24T19:26:41;98703.16;;;24.76;48.95
41140;BME280;26881;48.784;9.192;2022-08-24T19:32:03;98711.88;;;24.70;49.26
41140;BME280;26881;48.784;9.192;2022-08-24T19:37:30;98708.06;;;24.64;49.55
41140;BME280;26881;48.784;9.192;2022-08-24T19:42:52;98716.13;;;24.56;49.98
41140;BME280;26881;48.784;9.192;2022-08-24T19:48:15;98716.66;;;24.51;50.24
41140;BME280;26881;48.784;9.192;2022-08-24T19:53:38;98719.69;;;24.48;50.53
41140;BME280;26881;48.784;9.192;2022-08-24T19:59:05;98720.38;;;24.42;50.53
41140;BME280;26881;48.784;9.192;2022-08-24T20:04:27;98720.84;;;24.46;50.50
41140;BME280;26881;48.784;9.192;2022-08-24T20:09:49;98732.38;;;24.46;50.50
41140;BME280;26881;48.784;9.192;2022-08-24T20:15:11;98721.69;;;24.46;50.63
41140;BME280;26881;48.784;9.192;2022-08-24T20:20:33;98726.06;;;24.39;51.07
41140;BME280;26881;48.784;9.192;2022-08-24T20:25:57;98733.97;;;24.24;52.05
41140;BME280;26881;48.784;9.192;2022-08-24T20:31:20;98725.66;;;24.19;52.06
41140;BME280;26881;48.784;9.192;2022-08-24T20:36:49;98728.16;;;24.21;51.66
41140;BME280;26881;48.784;9.192;2022-08-24T20:42:11;98733.53;;;24.12;52.12
41140;BME280;26881;48.784;9.192;2022-08-24T20:47:45;98732.91;;;24.02;52.76
41140;BME280;26881;48.784;9.192;2022-08-24T20:53:08;98728.75;;;23.91;53.14
41140;BME280;26881;48.784;9.192;2022-08-24T20:58:31;98732.75;;;23.95;52.59
41140;BME280;26881;48.784;9.192;2022-08-24T21:03:53;98731.28;;;23.93;52.83
41140;BME280;26881;48.784;9.192;2022-08-24T21:09:15;98729.94;;;23.89;52.47
41140;BME280;26881;48.784;9.192;2022-08-24T21:14:37;98729.94;;;23.89;52.17
41140;BME280;26881;48.784;9.192;2022-08-24T21:19:59;98729.44;;;23.93;51.50
41140;BME280;26881;48.784;9.192;2022-08-24T21:25:21;98733.28;;;23.91;51.91
41140;BME280;26881;48.784;9.192;2022-08-24T21:30:42;98727.94;;;23.91;51.79
41140;BME280;26881;48.784;9.192;2022-08-24T21:36:04;98728.81;;;23.83;51.97
41140;BME280;26881;48.784;9.192;2022-08-24T21:41:27;98734.81;;;23.69;52.60
41140;BME280;26881;48.784;9.192;2022-08-24T21:46:50;98731.66;;;23.65;52.62
41140;BME280;26881;48.784;9.192;2022-08-24T21:52:12;98741.34;;;23.58;52.70
41140;BME280;26881;48.784;9.192;2022-08-24T21:57:34;98728.84;;;23.42;53.39
41140;BME280;26881;48.784;9.192;2022-08-24T22:02:56;98729.84;;;23.33;53.65
41140;BME280;26881;48.784;9.192;2022-08-24T22:08:17;98728.88;;;23.18;54.54
41140;BME280;26881;48.784;9.192;2022-08-24T22:13:40;98734.03;;;23.19;54.52
41140;BME280;26881;48.784;9.192;2022-08-24T22:19:02;98725.91;;;23.12;54.66
41140;BME280;26881;48.784;9.192;2022-08-24T22:24:24;98724.38;;;23.10;54.64
41140;BME280;26881;48.784;9.192;2022-08-24T22:29:46;98720.03;;;23.09;54.47
41140;BME280;26881;48.784;9.192;2022-08-24T22:35:13;98725.84;;;22.88;55.42
41140;BME280;26881;48.784;9.192;2022-08-24T22:40:35;98723.00;;;22.81;55.91
41140;BME280;26881;48.784;9.192;2022-08-24T22:45:57;98721.34;;;22.80;55.69
41140;BME280;26881;48.784;9.192;2022-08-24T22:51:20;98717.84;;;22.80;55.73
41140;BME280;26881;48.784;9.192;2022-08-24T22:56:45;98715.34;;;22.78;55.57
41140;BME280;26881;48.784;9.192;2022-08-24T23:02:10;98722.00;;;22.82;55.62
41140;BME280;26881;48.784;9.192;2022-08-24T23:07:32;98713.53;;;22.87;55.42
41140;BME280;26881;48.784;9.192;2022-08-24T23:12:55;98710.34;;;22.83;55.73
41140;BME280;26881;48.784;9.192;2022-08-24T23:18:17;98709.66;;;22.65;56.30
41140;BME280;26881;48.784;9.192;2022-08-24T23:23:58;98709.81;;;22.55;56.62
41140;BME280;26881;48.784;9.192;2022-08-24T23:29:20;98707.97;;;22.47;56.90
41140;BME280;26881;48.784;9.192;2022-08-24T23:34:42;98706.63;;;22.43;57.29
41140;BME280;26881;48.784;9.192;2022-08-24T23:40:04;98706.75;;;22.42;57.32
41140;BME280;26881;48.784;9.192;2022-08-24T23:45:26;98702.94;;;22.36;57.87
41140;BME280;26881;48.784;9.192;2022-08-24T23:50:51;98690.91;;;22.24;58.17
41140;BME280;26881;48.784;9.192;2022-08-24T23:56:19;98687.69;;;22.20;58.31
